Saint David, Arizona
Current Conditions -  °F | °C
As of 12:55 PM on Wednesday 26 Nov 2014 (Local Time) from KFHU Reporting Station
Clear Clear  
Wind Chill: 68°   Ceiling: Unl
Heat Index: 68°   Visibility: 10mi
Dew Point: 12°   Wind: 7mph
Humidity: 12%   Direction: 110°ESE
Pressure: 30.3"   Gusts: NA
Location:  31.9°N, 110.22°W
Report Text: KFHU 261955Z 11006KT 10SM CLR 20/M11 A3030 RMK SLP235
Loading
Personal Weather Stations






























Interactive Weather Map New forecast layout! Learn more

10-Day Weather Forecast

Advertisements
Track Severe Weather on mobile